Time;durP1;ratioP1;P1;durP2;ratioP2;P2;SDS_P1;SDS_P2;PMS_P1;PMS_P2;Temp;Humidity;BMP_temperature;BMP_pressure;BME280_temperature;BME280_humidity;BME280_pressure;Samples;Min_cycle;Max_cycle;Signal;HPM_P1;HPM_P2
2021/04/22 00:04:25;;;;;;;14.33;8.50;;;;;;;;;;10483864;28;20189;-69
2021/04/22 00:09:27;;;;;;;14.57;8.87;;;;;;;;;;10483102;28;20209;-69
2021/04/22 00:14:29;;;;;;;14.13;8.70;;;;;;;;;;10490510;28;20271;-69
2021/04/22 00:19:30;;;;;;;13.83;7.87;;;;;;;;;;10487953;28;20322;-66
2021/04/22 00:24:32;;;;;;;12.53;7.67;;;;;;;;;;10490349;28;20196;-69
2021/04/22 00:29:34;;;;;;;12.93;8.07;;;;;;;;;;10486584;28;20219;-69
2021/04/22 00:34:36;;;;;;;13.57;7.93;;;;;;;;;;10489601;28;20840;-69
2021/04/22 00:39:37;;;;;;;14.53;8.30;;;;;;;;;;10487512;28;20329;-68
2021/04/22 00:44:40;;;;;;;14.83;8.43;;;;;;;;;;10483268;28;20273;-69
2021/04/22 00:49:42;;;;;;;15.27;8.20;;;;;;;;;;10486610;28;20512;-69
2021/04/22 00:54:44;;;;;;;13.93;8.27;;;;;;;;;;10491893;28;20682;-69
2021/04/22 00:59:47;;;;;;;14.03;7.97;;;;;;;;;;10487541;28;20212;-69
2021/04/22 01:04:48;;;;;;;13.10;7.90;;;;;;;;;;10482119;28;20275;-67
2021/04/22 01:09:50;;;;;;;13.13;7.77;;;;;;;;;;10478923;28;20240;-69
2021/04/22 01:14:52;;;;;;;14.30;7.53;;;;;;;;;;10490432;28;20564;-69
2021/04/22 01:19:54;;;;;;;12.50;7.30;;;;;;;;;;10488948;28;20239;-71
2021/04/22 01:24:57;;;;;;;14.07;7.87;;;;;;;;;;10489778;28;20220;-70
2021/04/22 01:29:58;;;;;;;12.03;7.20;;;;;;;;;;10490761;28;20200;-70
2021/04/22 01:35:00;;;;;;;12.90;7.67;;;;;;;;;;10489556;28;20231;-70
2021/04/22 01:40:03;;;;;;;13.50;7.53;;;;;;;;;;10491081;28;20289;-70
2021/04/22 01:45:05;;;;;;;12.17;7.03;;;;;;;;;;10481929;28;20303;-69
2021/04/22 01:50:08;;;;;;;12.77;7.37;;;;;;;;;;10476772;28;20301;-69
2021/04/22 01:55:12;;;;;;;11.83;6.93;;;;;;;;;;10482965;28;20740;-69
2021/04/22 02:00:15;;;;;;;10.27;5.77;;;;;;;;;;10480938;28;20220;-69
2021/04/22 02:05:16;;;;;;;8.17;4.43;;;;;;;;;;10486291;28;20630;-68
2021/04/22 02:10:19;;;;;;;7.23;3.63;;;;;;;;;;10488565;28;20261;-69
2021/04/22 02:15:22;;;;;;;6.27;3.27;;;;;;;;;;10483541;28;20192;-69
2021/04/22 02:20:24;;;;;;;8.53;4.27;;;;;;;;;;10478947;28;20219;-69
2021/04/22 02:25:27;;;;;;;8.27;4.13;;;;;;;;;;10487869;28;20389;-68
2021/04/22 02:30:30;;;;;;;8.33;4.27;;;;;;;;;;10485582;28;20250;-71
2021/04/22 02:35:32;;;;;;;9.60;4.90;;;;;;;;;;10485619;28;20193;-68
2021/04/22 02:40:37;;;;;;;9.57;4.03;;;;;;;;;;10480099;28;20277;-68
2021/04/22 02:45:41;;;;;;;8.23;4.20;;;;;;;;;;10500455;28;20283;-70
2021/04/22 02:50:44;;;;;;;8.30;4.10;;;;;;;;;;10490571;28;20223;-68
2021/04/22 02:55:46;;;;;;;10.00;4.70;;;;;;;;;;10478178;28;20628;-69
2021/04/22 03:00:55;;;;;;;9.20;5.27;;;;;;;;;;10484610;28;20236;-70
2021/04/22 03:05:57;;;;;;;10.20;5.43;;;;;;;;;;10478390;28;20684;-69
2021/04/22 03:10:59;;;;;;;9.83;4.97;;;;;;;;;;10485102;28;20227;-70
2021/04/22 03:16:01;;;;;;;9.20;5.37;;;;;;;;;;10486563;28;20674;-69
2021/04/22 03:21:03;;;;;;;9.97;5.17;;;;;;;;;;10484464;28;20303;-70
2021/04/22 03:26:05;;;;;;;10.97;5.87;;;;;;;;;;10483725;28;20222;-69
2021/04/22 03:31:07;;;;;;;10.63;5.87;;;;;;;;;;10483952;28;20222;-70
2021/04/22 03:36:09;;;;;;;11.13;6.27;;;;;;;;;;10485237;28;20657;-70
2021/04/22 03:41:11;;;;;;;11.07;5.90;;;;;;;;;;10483352;28;20680;-69
2021/04/22 03:46:12;;;;;;;10.57;6.33;;;;;;;;;;10478568;28;20679;-70
2021/04/22 03:51:14;;;;;;;10.93;6.23;;;;;;;;;;10493743;28;20383;-70
2021/04/22 03:56:17;;;;;;;12.07;7.20;;;;;;;;;;10493591;28;20188;-68
2021/04/22 04:01:18;;;;;;;13.57;7.53;;;;;;;;;;10493257;28;20236;-70
2021/04/22 04:06:20;;;;;;;13.40;8.07;;;;;;;;;;10490026;28;20610;-70
2021/04/22 04:11:23;;;;;;;14.63;8.13;;;;;;;;;;10492158;28;20581;-70
2021/04/22 04:16:24;;;;;;;15.60;8.97;;;;;;;;;;10490017;28;20533;-69
2021/04/22 04:21:26;;;;;;;12.00;6.87;;;;;;;;;;10487431;28;20315;-70
2021/04/22 04:26:28;;;;;;;14.83;8.67;;;;;;;;;;10476367;28;20200;-70
2021/04/22 04:31:30;;;;;;;17.17;9.17;;;;;;;;;;10459702;28;20243;-69
2021/04/22 04:36:32;;;;;;;14.50;8.77;;;;;;;;;;10465724;28;20220;-69
2021/04/22 04:41:34;;;;;;;16.00;9.47;;;;;;;;;;10456572;28;20735;-70
2021/04/22 04:46:36;;;;;;;16.63;9.80;;;;;;;;;;10469550;28;20205;-69
2021/04/22 04:51:37;;;;;;;16.27;9.63;;;;;;;;;;10481741;28;20292;-69
2021/04/22 04:56:40;;;;;;;16.83;9.57;;;;;;;;;;10471627;28;20279;-71
2021/04/22 05:01:42;;;;;;;16.43;9.27;;;;;;;;;;10472385;28;20278;-70
2021/04/22 05:06:43;;;;;;;16.43;9.63;;;;;;;;;;10474638;28;20230;-67
2021/04/22 05:11:46;;;;;;;20.80;9.67;;;;;;;;;;10478755;28;20238;-69
2021/04/22 05:16:47;;;;;;;16.83;9.67;;;;;;;;;;10475515;28;20207;-69
2021/04/22 05:21:49;;;;;;;15.90;9.07;;;;;;;;;;10453826;28;20213;-69
2021/04/22 05:26:51;;;;;;;15.00;9.43;;;;;;;;;;10474164;28;20254;-70
2021/04/22 05:31:53;;;;;;;17.23;9.60;;;;;;;;;;10477919;28;20208;-70
2021/04/22 05:36:55;;;;;;;13.07;6.57;;;;;;;;;;10475496;28;20184;-69
2021/04/22 05:41:58;;;;;;;15.23;9.03;;;;;;;;;;10469810;28;20220;-69
2021/04/22 05:47:00;;;;;;;17.30;10.00;;;;;;;;;;10486821;28;20235;-67
2021/04/22 05:52:02;;;;;;;17.47;9.63;;;;;;;;;;10484614;28;20303;-68
2021/04/22 05:57:05;;;;;;;18.40;10.07;;;;;;;;;;10486525;28;20259;-73
2021/04/22 06:02:06;;;;;;;15.73;9.00;;;;;;;;;;10494633;28;20325;-72
2021/04/22 06:07:08;;;;;;;15.07;9.33;;;;;;;;;;10488856;28;20192;-72
2021/04/22 06:12:11;;;;;;;15.30;8.57;;;;;;;;;;10486292;28;20206;-70
2021/04/22 06:17:13;;;;;;;14.43;9.03;;;;;;;;;;10480787;28;20193;-71
2021/04/22 06:22:14;;;;;;;14.87;8.70;;;;;;;;;;10485485;28;20220;-71
2021/04/22 06:27:17;;;;;;;15.03;9.17;;;;;;;;;;10484285;28;20188;-68
2021/04/22 06:32:18;;;;;;;15.40;8.93;;;;;;;;;;10483113;28;20626;-70
2021/04/22 06:37:20;;;;;;;16.47;10.20;;;;;;;;;;10483223;28;20224;-71
2021/04/22 06:42:23;;;;;;;16.73;10.40;;;;;;;;;;10482886;28;20224;-69
2021/04/22 06:47:24;;;;;;;18.03;10.70;;;;;;;;;;10491407;28;20207;-70
2021/04/22 06:52:26;;;;;;;16.23;10.37;;;;;;;;;;10483687;28;20212;-70
2021/04/22 06:57:28;;;;;;;15.27;10.00;;;;;;;;;;10487116;28;20287;-74
2021/04/22 07:02:30;;;;;;;17.63;11.03;;;;;;;;;;10479580;28;20356;-72
2021/04/22 07:07:32;;;;;;;17.90;10.17;;;;;;;;;;10477598;28;20204;-71
2021/04/22 07:12:34;;;;;;;16.40;10.50;;;;;;;;;;10477126;28;20635;-71
2021/04/22 07:17:36;;;;;;;16.33;10.73;;;;;;;;;;10481126;28;20199;-68
2021/04/22 07:22:38;;;;;;;16.10;10.80;;;;;;;;;;10488729;28;20212;-70
2021/04/22 07:27:41;;;;;;;15.20;9.93;;;;;;;;;;10492045;28;20223;-71
2021/04/22 07:32:44;;;;;;;14.10;10.27;;;;;;;;;;10489944;28;20200;-71
2021/04/22 07:37:47;;;;;;;14.07;9.97;;;;;;;;;;10488324;28;20611;-68
2021/04/22 07:42:50;;;;;;;16.30;10.67;;;;;;;;;;10488341;28;20228;-71
2021/04/22 07:47:52;;;;;;;14.50;10.43;;;;;;;;;;10489690;28;20208;-71
2021/04/22 07:52:56;;;;;;;15.30;10.97;;;;;;;;;;10480852;28;20287;-72
2021/04/22 07:57:58;;;;;;;17.47;12.13;;;;;;;;;;10485760;28;20208;-71
2021/04/22 08:03:01;;;;;;;17.23;11.03;;;;;;;;;;10489714;28;20307;-71
2021/04/22 08:08:04;;;;;;;16.85;11.25;;;;;;;;;;10487767;28;20216;-71
2021/04/22 08:13:07;;;;;;;13.77;10.50;;;;;;;;;;10493036;28;20872;-72
2021/04/22 08:18:09;;;;;;;13.15;11.10;;;;;;;;;;10493203;28;20627;-71
2021/04/22 08:23:11;;;;;;;14.90;10.68;;;;;;;;;;10510035;28;20222;-72
2021/04/22 08:28:15;;;;;;;13.07;10.98;;;;;;;;;;10495213;28;20725;-70
2021/04/22 08:33:17;;;;;;;14.15;11.48;;;;;;;;;;10507034;28;20270;-70
2021/04/22 08:38:19;;;;;;;14.88;11.50;;;;;;;;;;10483966;28;20223;-69
2021/04/22 08:43:22;;;;;;;15.25;11.80;;;;;;;;;;10531788;27;20212;-71
2021/04/22 08:48:26;;;;;;;15.75;12.40;;;;;;;;;;10520788;27;20250;-71
2021/04/22 08:53:30;;;;;;;15.95;13.25;;;;;;;;;;10490424;28;20224;-72
2021/04/22 08:58:32;;;;;;;16.30;12.27;;;;;;;;;;10466549;28;20224;-71
2021/04/22 09:03:34;;;;;;;17.58;13.60;;;;;;;;;;10473060;28;20231;-74
2021/04/22 09:08:37;;;;;;;15.52;12.23;;;;;;;;;;10481598;28;20192;-69
2021/04/22 09:13:40;;;;;;;16.77;12.68;;;;;;;;;;10467802;28;20216;-72
2021/04/22 09:18:44;;;;;;;16.85;12.35;;;;;;;;;;10475675;28;20217;-71
2021/04/22 09:23:56;;;;;;;15.90;12.75;;;;;;;;;;10476772;28;20372;-69
2021/04/22 09:29:06;;;;;;;15.60;13.35;;;;;;;;;;10481525;28;20184;-72
2021/04/22 09:34:09;;;;;;;17.38;13.25;;;;;;;;;;10500771;28;20223;-72
2021/04/22 09:39:11;;;;;;;15.88;14.05;;;;;;;;;;10498017;28;20241;-71
2021/04/22 09:44:15;;;;;;;15.05;12.98;;;;;;;;;;10500503;28;20210;-72
2021/04/22 09:49:17;;;;;;;16.02;13.95;;;;;;;;;;10498646;28;20287;-72
2021/04/22 09:54:20;;;;;;;17.38;13.52;;;;;;;;;;10497170;28;20255;-72
2021/04/22 09:59:24;;;;;;;16.27;14.25;;;;;;;;;;10505942;28;20226;-71
2021/04/22 10:04:30;;;;;;;15.38;13.25;;;;;;;;;;10532755;27;20195;-71
2021/04/22 10:09:32;;;;;;;16.58;14.13;;;;;;;;;;10501474;28;20268;-71
2021/04/22 10:14:35;;;;;;;18.92;16.75;;;;;;;;;;10490249;28;20199;-74
2021/04/22 10:19:37;;;;;;;20.27;18.08;;;;;;;;;;10506091;28;20313;-73
2021/04/22 10:24:38;;;;;;;18.52;16.40;;;;;;;;;;10499176;28;20196;-72
2021/04/22 10:29:41;;;;;;;20.17;16.30;;;;;;;;;;10492590;28;20228;-72
2021/04/22 10:34:43;;;;;;;19.00;15.70;;;;;;;;;;10481014;28;20222;-72
2021/04/22 10:39:46;;;;;;;16.67;14.25;;;;;;;;;;10484738;28;20213;-71
2021/04/22 10:44:49;;;;;;;17.45;14.98;;;;;;;;;;10493278;28;20256;-71
2021/04/22 10:49:51;;;;;;;17.23;14.45;;;;;;;;;;10495035;28;20295;-73
2021/04/22 10:54:53;;;;;;;17.48;15.65;;;;;;;;;;10495852;28;20197;-71
2021/04/22 11:00:04;;;;;;;16.42;14.73;;;;;;;;;;10499549;28;20220;-72
2021/04/22 11:05:23;;;;;;;18.27;16.25;;;;;;;;;;10496807;28;20260;-70
2021/04/22 11:10:31;;;;;;;17.40;14.85;;;;;;;;;;10483488;28;20299;-72
2021/04/22 11:15:33;;;;;;;18.65;16.75;;;;;;;;;;10489229;28;20201;-72
2021/04/22 11:20:38;;;;;;;18.80;16.48;;;;;;;;;;10481287;28;20240;-70
2021/04/22 11:25:46;;;;;;;20.95;17.88;;;;;;;;;;10465909;28;20192;-70
2021/04/22 11:30:49;;;;;;;20.08;17.50;;;;;;;;;;10477541;28;20209;-70
2021/04/22 11:35:51;;;;;;;19.20;16.60;;;;;;;;;;10483068;28;20236;-70
2021/04/22 11:40:55;;;;;;;20.35;18.25;;;;;;;;;;10478026;28;20286;-70
2021/04/22 11:45:58;;;;;;;21.25;17.55;;;;;;;;;;10509673;28;20213;-67
2021/04/22 11:51:00;;;;;;;21.77;17.20;;;;;;;;;;10491739;28;20624;-70
2021/04/22 11:56:03;;;;;;;22.75;18.73;;;;;;;;;;10471798;28;20694;-71
2021/04/22 12:01:07;;;;;;;21.63;17.63;;;;;;;;;;10483673;28;20223;-71
2021/04/22 12:06:10;;;;;;;21.23;17.30;;;;;;;;;;10504706;28;20193;-68
2021/04/22 12:11:14;;;;;;;18.65;16.65;;;;;;;;;;10538731;27;20212;-69
2021/04/22 12:16:17;;;;;;;20.60;17.65;;;;;;;;;;10498258;28;20200;-70
2021/04/22 12:21:20;;;;;;;20.42;17.73;;;;;;;;;;10506866;28;20222;-71
2021/04/22 12:26:22;;;;;;;24.20;17.83;;;;;;;;;;10500890;28;20192;-68
2021/04/22 12:31:26;;;;;;;20.42;17.50;;;;;;;;;;10501587;28;20223;-70
2021/04/22 12:36:28;;;;;;;20.50;16.08;;;;;;;;;;10504183;28;20870;-71
2021/04/22 12:41:30;;;;;;;20.70;17.50;;;;;;;;;;10504463;28;20680;-71
2021/04/22 12:46:34;;;;;;;19.73;17.10;;;;;;;;;;10490128;28;20686;-69
2021/04/22 12:51:36;;;;;;;23.42;17.33;;;;;;;;;;10485035;28;20986;-69
2021/04/22 12:56:38;;;;;;;18.80;16.27;;;;;;;;;;10483353;28;20734;-69
2021/04/22 13:01:40;;;;;;;19.47;15.07;;;;;;;;;;10486015;28;20298;-70
2021/04/22 13:06:44;;;;;;;20.53;15.20;;;;;;;;;;10486986;28;20300;-69
2021/04/22 13:11:47;;;;;;;16.17;11.73;;;;;;;;;;10483625;28;20252;-69
2021/04/22 13:16:50;;;;;;;15.90;11.65;;;;;;;;;;10495389;28;20658;-70
2021/04/22 13:21:54;;;;;;;16.63;12.48;;;;;;;;;;10479629;28;20224;-68
2021/04/22 13:26:56;;;;;;;15.93;11.93;;;;;;;;;;10480153;28;20204;-70
2021/04/22 13:32:01;;;;;;;14.57;11.13;;;;;;;;;;10487559;28;20656;-70
2021/04/22 13:37:04;;;;;;;14.13;10.80;;;;;;;;;;10487347;28;20193;-71
2021/04/22 13:42:06;;;;;;;13.30;9.68;;;;;;;;;;10485227;28;20299;-70
2021/04/22 13:47:09;;;;;;;13.55;10.07;;;;;;;;;;10483119;28;20387;-68
2021/04/22 13:52:12;;;;;;;13.82;9.88;;;;;;;;;;10479263;28;20219;-70
2021/04/22 13:57:15;;;;;;;12.95;9.20;;;;;;;;;;10482673;28;20278;-70
2021/04/22 14:02:18;;;;;;;11.80;8.82;;;;;;;;;;10500223;28;20208;-69
2021/04/22 14:07:25;;;;;;;12.10;8.48;;;;;;;;;;10488652;28;20571;-70
2021/04/22 14:12:28;;;;;;;13.20;8.43;;;;;;;;;;10486451;28;20797;-69
2021/04/22 14:17:30;;;;;;;10.40;7.30;;;;;;;;;;10467106;28;20275;-71
2021/04/22 14:22:32;;;;;;;8.70;5.68;;;;;;;;;;10451400;28;20236;-70
2021/04/22 14:27:34;;;;;;;8.30;5.15;;;;;;;;;;10475837;28;20262;-71
2021/04/22 14:32:36;;;;;;;10.60;6.37;;;;;;;;;;10486076;28;20363;-69
2021/04/22 14:37:38;;;;;;;11.30;6.17;;;;;;;;;;10473593;28;20679;-70
2021/04/22 14:42:59;;;;;;;10.40;5.90;;;;;;;;;;10478061;28;20227;-71
2021/04/22 14:48:02;;;;;;;8.23;4.40;;;;;;;;;;10482806;28;20287;-71
2021/04/22 14:53:04;;;;;;;10.97;5.63;;;;;;;;;;10485585;28;20561;-70
2021/04/22 14:58:06;;;;;;;11.23;4.60;;;;;;;;;;10467210;28;20270;-70
2021/04/22 15:03:09;;;;;;;8.53;4.00;;;;;;;;;;10472173;28;21071;-70
2021/04/22 15:08:11;;;;;;;7.43;3.60;;;;;;;;;;10484862;28;20192;-70
2021/04/22 15:13:13;;;;;;;7.50;3.70;;;;;;;;;;10479017;28;20299;-70
2021/04/22 15:18:15;;;;;;;6.60;3.03;;;;;;;;;;10466200;28;20196;-71
2021/04/22 15:23:17;;;;;;;7.87;2.37;;;;;;;;;;10478805;28;20204;-71
2021/04/22 15:28:18;;;;;;;6.10;2.60;;;;;;;;;;10483564;28;20188;-70
2021/04/22 15:33:21;;;;;;;7.90;2.67;;;;;;;;;;10482910;28;20243;-70
2021/04/22 15:38:23;;;;;;;5.27;2.50;;;;;;;;;;10464792;28;20185;-70
2021/04/22 15:43:25;;;;;;;5.93;2.43;;;;;;;;;;10496389;28;20222;-70
2021/04/22 15:48:28;;;;;;;5.37;2.47;;;;;;;;;;10488871;28;20249;-70
2021/04/22 15:53:30;;;;;;;5.97;2.43;;;;;;;;;;10483962;28;20215;-70
2021/04/22 15:58:31;;;;;;;7.80;3.50;;;;;;;;;;10492096;28;20280;-71
2021/04/22 16:03:34;;;;;;;5.60;2.70;;;;;;;;;;10484995;28;20232;-70
2021/04/22 16:08:36;;;;;;;6.90;2.83;;;;;;;;;;10491895;28;20273;-69
2021/04/22 16:13:41;;;;;;;5.97;2.53;;;;;;;;;;10484586;28;20240;-70
2021/04/22 16:18:43;;;;;;;6.10;2.40;;;;;;;;;;10483803;28;20218;-68
2021/04/22 16:23:46;;;;;;;7.87;2.70;;;;;;;;;;10484596;28;20236;-70
2021/04/22 16:28:48;;;;;;;6.30;2.60;;;;;;;;;;10480462;28;20279;-70
2021/04/22 16:33:51;;;;;;;7.77;3.37;;;;;;;;;;10481525;28;20696;-69
2021/04/22 16:38:53;;;;;;;5.83;2.60;;;;;;;;;;10488175;28;20568;-71
2021/04/22 16:43:55;;;;;;;7.53;3.17;;;;;;;;;;10490441;28;20977;-70
2021/04/22 16:49:00;;;;;;;9.07;3.40;;;;;;;;;;10488709;28;20284;-68
2021/04/22 16:54:03;;;;;;;5.43;2.53;;;;;;;;;;10478374;28;20188;-68
2021/04/22 16:59:05;;;;;;;5.53;2.53;;;;;;;;;;10488843;28;20197;-70
2021/04/22 17:04:08;;;;;;;6.30;2.87;;;;;;;;;;10489513;28;20514;-70
2021/04/22 17:09:12;;;;;;;6.90;2.90;;;;;;;;;;10487599;28;20742;-70
2021/04/22 17:14:14;;;;;;;7.97;2.90;;;;;;;;;;10482470;28;20196;-68
2021/04/22 17:19:17;;;;;;;7.40;3.03;;;;;;;;;;10497278;28;20299;-67
2021/04/22 17:24:19;;;;;;;8.03;2.83;;;;;;;;;;10490071;28;20230;-70
2021/04/22 17:29:21;;;;;;;7.50;2.80;;;;;;;;;;10474319;28;20212;-70
2021/04/22 17:34:23;;;;;;;8.83;3.03;;;;;;;;;;10486901;28;20203;-70
2021/04/22 17:39:25;;;;;;;10.57;5.13;;;;;;;;;;10484020;28;20236;-70
2021/04/22 17:44:27;;;;;;;7.37;3.13;;;;;;;;;;10486946;28;20660;-70
2021/04/22 17:49:29;;;;;;;6.97;2.73;;;;;;;;;;10493814;28;20284;-69
2021/04/22 17:54:31;;;;;;;6.60;2.77;;;;;;;;;;10483148;28;20197;-70
2021/04/22 17:59:32;;;;;;;7.63;2.60;;;;;;;;;;10480190;28;20262;-70
2021/04/22 18:04:35;;;;;;;6.47;2.50;;;;;;;;;;10487544;28;20239;-70
2021/04/22 18:09:36;;;;;;;7.70;2.60;;;;;;;;;;10483396;28;20236;-71
2021/04/22 18:14:39;;;;;;;7.27;2.67;;;;;;;;;;10466934;28;20188;-68
2021/04/22 18:19:42;;;;;;;6.53;2.40;;;;;;;;;;10479555;28;20491;-70
2021/04/22 18:24:43;;;;;;;6.93;2.20;;;;;;;;;;10456941;28;20199;-71
2021/04/22 18:29:45;;;;;;;7.43;2.20;;;;;;;;;;10463259;28;20790;-71
2021/04/22 18:34:47;;;;;;;6.80;2.47;;;;;;;;;;10506159;28;20298;-72
2021/04/22 18:39:50;;;;;;;7.70;2.70;;;;;;;;;;10457983;28;20303;-73
2021/04/22 18:44:53;;;;;;;8.60;3.07;;;;;;;;;;10451558;28;20204;-71
2021/04/22 18:49:56;;;;;;;9.40;3.07;;;;;;;;;;10449776;28;20684;-72
2021/04/22 18:54:58;;;;;;;9.03;2.90;;;;;;;;;;10458315;28;20189;-69
2021/04/22 18:59:59;;;;;;;7.33;2.70;;;;;;;;;;10451947;28;20390;-72
2021/04/22 19:05:02;;;;;;;6.40;2.60;;;;;;;;;;10456541;28;20296;-72
2021/04/22 19:10:04;;;;;;;9.13;2.80;;;;;;;;;;10450214;28;20216;-71
2021/04/22 19:15:06;;;;;;;7.40;2.53;;;;;;;;;;10456472;28;20200;-71
2021/04/22 19:20:10;;;;;;;9.67;3.00;;;;;;;;;;10486215;28;20644;-72
2021/04/22 19:25:12;;;;;;;7.60;2.97;;;;;;;;;;10469648;28;20295;-70
2021/04/22 19:30:16;;;;;;;7.87;3.03;;;;;;;;;;10478880;28;20235;-71
2021/04/22 19:35:20;;;;;;;8.97;3.40;;;;;;;;;;10518784;28;20212;-71
2021/04/22 19:40:24;;;;;;;8.10;3.13;;;;;;;;;;10487277;28;20219;-70
2021/04/22 19:45:28;;;;;;;8.23;3.00;;;;;;;;;;10460108;28;20219;-71
2021/04/22 19:50:35;;;;;;;9.40;3.20;;;;;;;;;;10461071;28;20216;-71
2021/04/22 19:55:37;;;;;;;8.83;3.47;;;;;;;;;;10473157;28;20207;-70
2021/04/22 20:00:39;;;;;;;9.50;3.50;;;;;;;;;;10462819;28;20208;-70
2021/04/22 20:05:44;;;;;;;8.97;2.97;;;;;;;;;;10473697;28;20192;-70
2021/04/22 20:10:45;;;;;;;9.70;2.93;;;;;;;;;;10476515;28;20287;-71
2021/04/22 20:15:47;;;;;;;8.93;2.83;;;;;;;;;;10492034;28;20189;-70
2021/04/22 20:20:51;;;;;;;8.23;3.00;;;;;;;;;;10457481;28;20238;-72
2021/04/22 20:25:53;;;;;;;8.43;3.10;;;;;;;;;;10470733;28;20249;-70
2021/04/22 20:30:54;;;;;;;8.03;2.97;;;;;;;;;;10482230;28;20603;-71
2021/04/22 20:35:57;;;;;;;9.57;3.17;;;;;;;;;;10491241;28;20601;-70
2021/04/22 20:41:01;;;;;;;8.80;3.07;;;;;;;;;;10490876;28;20216;-70
2021/04/22 20:46:03;;;;;;;9.13;3.43;;;;;;;;;;10490968;28;20618;-70
2021/04/22 20:51:06;;;;;;;7.63;3.13;;;;;;;;;;10485529;28;20209;-71
2021/04/22 20:56:08;;;;;;;9.27;3.10;;;;;;;;;;10490052;28;20254;-70
2021/04/22 21:01:10;;;;;;;9.77;3.70;;;;;;;;;;10481389;28;20224;-72
2021/04/22 21:06:12;;;;;;;9.75;3.85;;;;;;;;;;10480668;28;20441;-69
2021/04/22 21:11:14;;;;;;;10.90;4.03;;;;;;;;;;10465803;28;20216;-71
2021/04/22 21:16:16;;;;;;;9.60;3.53;;;;;;;;;;10489381;28;20192;-68
2021/04/22 21:21:19;;;;;;;8.70;3.10;;;;;;;;;;10472002;28;20224;-70
2021/04/22 21:26:39;;;;;;;8.73;3.50;;;;;;;;;;10486166;28;20196;-69
2021/04/22 21:31:41;;;;;;;9.83;3.50;;;;;;;;;;10497526;28;20285;-69
2021/04/22 21:36:44;;;;;;;9.50;3.50;;;;;;;;;;10498151;28;20628;-71
2021/04/22 21:41:46;;;;;;;10.95;4.05;;;;;;;;;;10501001;28;20573;-71
2021/04/22 21:46:47;;;;;;;11.90;3.70;;;;;;;;;;10493034;28;20200;-70
2021/04/22 21:51:50;;;;;;;11.30;3.63;;;;;;;;;;10495184;28;20329;-70
2021/04/22 21:56:51;;;;;;;9.67;3.77;;;;;;;;;;10490155;28;20198;-69
2021/04/22 22:01:54;;;;;;;9.93;3.67;;;;;;;;;;10500985;28;20219;-69
2021/04/22 22:07:03;;;;;;;10.17;3.80;;;;;;;;;;10497742;28;20198;-69
2021/04/22 22:12:25;;;;;;;9.03;3.60;;;;;;;;;;10492037;28;20216;-68
2021/04/22 22:17:26;;;;;;;10.77;3.47;;;;;;;;;;10498991;28;20224;-70
2021/04/22 22:22:29;;;;;;;8.07;3.10;;;;;;;;;;10493991;28;20216;-68
2021/04/22 22:27:30;;;;;;;10.23;3.40;;;;;;;;;;10497250;28;20227;-70
2021/04/22 22:32:32;;;;;;;10.80;3.70;;;;;;;;;;10499833;28;20591;-69
2021/04/22 22:37:35;;;;;;;10.10;3.73;;;;;;;;;;10500963;28;20735;-70
2021/04/22 22:42:36;;;;;;;11.47;3.70;;;;;;;;;;10502585;28;20660;-68
2021/04/22 22:47:38;;;;;;;9.23;3.40;;;;;;;;;;10492641;28;20314;-70
2021/04/22 22:52:41;;;;;;;10.10;3.90;;;;;;;;;;10495540;28;20286;-69
2021/04/22 22:57:47;;;;;;;10.43;3.50;;;;;;;;;;10496900;28;20192;-70
2021/04/22 23:02:48;;;;;;;10.00;3.47;;;;;;;;;;10488224;28;20295;-70
2021/04/22 23:07:51;;;;;;;12.40;3.40;;;;;;;;;;10498683;28;20192;-71
2021/04/22 23:12:53;;;;;;;8.87;3.00;;;;;;;;;;10494511;28;20212;-71
2021/04/22 23:17:54;;;;;;;8.60;3.30;;;;;;;;;;10492103;28;20221;-70
2021/04/22 23:22:57;;;;;;;9.60;3.43;;;;;;;;;;10497597;28;20674;-70
2021/04/22 23:27:59;;;;;;;7.90;3.17;;;;;;;;;;10485287;28;20275;-71
2021/04/22 23:33:02;;;;;;;11.10;3.57;;;;;;;;;;10486008;28;20215;-70
2021/04/22 23:38:04;;;;;;;6.60;2.97;;;;;;;;;;10481804;28;20220;-71
2021/04/22 23:43:06;;;;;;;10.57;4.00;;;;;;;;;;10478191;28;20221;-70
2021/04/22 23:48:09;;;;;;;11.00;3.67;;;;;;;;;;10485463;28;20283;-71
2021/04/22 23:53:11;;;;;;;9.87;3.40;;;;;;;;;;10482943;28;20650;-71
2021/04/22 23:58:13;;;;;;;13.03;3.80;;;;;;;;;;10481453;28;20265;-70
